sensor_id;sensor_type;location;lat;lon;timestamp;P1;durP1;ratioP1;P2;durP2;ratioP2
55758;SDS011;41678;52.126;20.664;2022-07-29T00:03:27;12.05;;;3.95;;
55758;SDS011;41678;52.126;20.664;2022-07-29T00:08:47;11.75;;;4.22;;
55758;SDS011;41678;52.126;20.664;2022-07-29T00:14:08;14.38;;;4.35;;
55758;SDS011;41678;52.126;20.664;2022-07-29T00:19:29;11.07;;;3.88;;
55758;SDS011;41678;52.126;20.664;2022-07-29T00:24:56;14.63;;;4.43;;
55758;SDS011;41678;52.126;20.664;2022-07-29T00:30:16;13.38;;;4.03;;
55758;SDS011;41678;52.126;20.664;2022-07-29T00:35:36;10.98;;;4.10;;
55758;SDS011;41678;52.126;20.664;2022-07-29T00:41:05;11.73;;;4.20;;
55758;SDS011;41678;52.126;20.664;2022-07-29T00:46:25;10.95;;;3.97;;
55758;SDS011;41678;52.126;20.664;2022-07-29T00:51:45;12.70;;;4.10;;
55758;SDS011;41678;52.126;20.664;2022-07-29T00:57:07;10.10;;;3.73;;
55758;SDS011;41678;52.126;20.664;2022-07-29T01:02:27;8.03;;;3.67;;
55758;SDS011;41678;52.126;20.664;2022-07-29T01:07:48;12.85;;;3.90;;
55758;SDS011;41678;52.126;20.664;2022-07-29T01:13:11;8.32;;;3.88;;
55758;SDS011;41678;52.126;20.664;2022-07-29T01:18:39;18.43;;;4.60;;
55758;SDS011;41678;52.126;20.664;2022-07-29T01:24:07;11.95;;;4.25;;
55758;SDS011;41678;52.126;20.664;2022-07-29T01:29:45;10.40;;;4.40;;
55758;SDS011;41678;52.126;20.664;2022-07-29T01:40:49;9.52;;;3.90;;
55758;SDS011;41678;52.126;20.664;2022-07-29T01:46:13;10.35;;;3.75;;
55758;SDS011;41678;52.126;20.664;2022-07-29T01:51:40;12.63;;;3.75;;
55758;SDS011;41678;52.126;20.664;2022-07-29T01:57:13;12.25;;;4.38;;
55758;SDS011;41678;52.126;20.664;2022-07-29T02:02:37;11.85;;;3.88;;
55758;SDS011;41678;52.126;20.664;2022-07-29T02:08:00;10.35;;;4.28;;
55758;SDS011;41678;52.126;20.664;2022-07-29T02:13:21;11.10;;;4.43;;
55758;SDS011;41678;52.126;20.664;2022-07-29T02:18:43;10.55;;;3.58;;
55758;SDS011;41678;52.126;20.664;2022-07-29T02:24:05;10.02;;;3.50;;
55758;SDS011;41678;52.126;20.664;2022-07-29T02:29:28;14.20;;;4.32;;
55758;SDS011;41678;52.126;20.664;2022-07-29T02:34:50;12.05;;;4.82;;
55758;SDS011;41678;52.126;20.664;2022-07-29T02:40:11;12.50;;;3.70;;
55758;SDS011;41678;52.126;20.664;2022-07-29T02:45:34;7.40;;;3.30;;
55758;SDS011;41678;52.126;20.664;2022-07-29T02:50:57;9.32;;;3.72;;
55758;SDS011;41678;52.126;20.664;2022-07-29T02:56:25;11.63;;;3.65;;
55758;SDS011;41678;52.126;20.664;2022-07-29T03:01:47;11.23;;;3.90;;
55758;SDS011;41678;52.126;20.664;2022-07-29T03:07:09;7.00;;;3.15;;
55758;SDS011;41678;52.126;20.664;2022-07-29T03:12:33;8.27;;;3.33;;
55758;SDS011;41678;52.126;20.664;2022-07-29T03:17:53;9.75;;;3.50;;
55758;SDS011;41678;52.126;20.664;2022-07-29T03:23:21;6.50;;;2.95;;
55758;SDS011;41678;52.126;20.664;2022-07-29T03:28:43;10.50;;;2.85;;
55758;SDS011;41678;52.126;20.664;2022-07-29T03:34:02;6.88;;;2.75;;
55758;SDS011;41678;52.126;20.664;2022-07-29T03:39:23;8.38;;;2.05;;
55758;SDS011;41678;52.126;20.664;2022-07-29T03:44:47;10.85;;;3.10;;
55758;SDS011;41678;52.126;20.664;2022-07-29T03:50:10;7.85;;;2.70;;
55758;SDS011;41678;52.126;20.664;2022-07-29T03:55:36;6.57;;;2.53;;
55758;SDS011;41678;52.126;20.664;2022-07-29T04:01:01;8.02;;;2.85;;
55758;SDS011;41678;52.126;20.664;2022-07-29T04:06:21;9.73;;;2.88;;
55758;SDS011;41678;52.126;20.664;2022-07-29T04:11:41;7.45;;;2.03;;
55758;SDS011;41678;52.126;20.664;2022-07-29T04:17:02;9.02;;;3.58;;
55758;SDS011;41678;52.126;20.664;2022-07-29T04:27:42;5.93;;;2.00;;
55758;SDS011;41678;52.126;20.664;2022-07-29T04:33:19;7.53;;;1.92;;
55758;SDS011;41678;52.126;20.664;2022-07-29T04:38:39;8.05;;;2.47;;
55758;SDS011;41678;52.126;20.664;2022-07-29T04:43:59;12.63;;;2.30;;
55758;SDS011;41678;52.126;20.664;2022-07-29T04:49:23;14.55;;;2.60;;
55758;SDS011;41678;52.126;20.664;2022-07-29T04:54:43;11.30;;;2.20;;
55758;SDS011;41678;52.126;20.664;2022-07-29T05:00:04;8.02;;;1.95;;
55758;SDS011;41678;52.126;20.664;2022-07-29T05:05:24;6.28;;;1.83;;
55758;SDS011;41678;52.126;20.664;2022-07-29T05:10:43;6.50;;;1.67;;
55758;SDS011;41678;52.126;20.664;2022-07-29T05:16:04;5.75;;;2.10;;
55758;SDS011;41678;52.126;20.664;2022-07-29T05:21:24;5.78;;;1.92;;
55758;SDS011;41678;52.126;20.664;2022-07-29T05:26:43;18.52;;;1.90;;
55758;SDS011;41678;52.126;20.664;2022-07-29T05:32:03;9.52;;;1.83;;
55758;SDS011;41678;52.126;20.664;2022-07-29T05:37:24;4.68;;;1.70;;
55758;SDS011;41678;52.126;20.664;2022-07-29T05:42:44;4.57;;;1.45;;
55758;SDS011;41678;52.126;20.664;2022-07-29T05:48:04;4.82;;;1.50;;
55758;SDS011;41678;52.126;20.664;2022-07-29T05:53:23;5.10;;;1.40;;
55758;SDS011;41678;52.126;20.664;2022-07-29T05:58:43;7.50;;;1.80;;
55758;SDS011;41678;52.126;20.664;2022-07-29T06:04:03;7.22;;;1.45;;
55758;SDS011;41678;52.126;20.664;2022-07-29T06:09:23;6.97;;;1.50;;
55758;SDS011;41678;52.126;20.664;2022-07-29T06:14:43;9.10;;;1.30;;
55758;SDS011;41678;52.126;20.664;2022-07-29T06:20:03;5.18;;;1.60;;
55758;SDS011;41678;52.126;20.664;2022-07-29T06:25:23;6.00;;;1.30;;
55758;SDS011;41678;52.126;20.664;2022-07-29T06:30:43;7.07;;;1.40;;
55758;SDS011;41678;52.126;20.664;2022-07-29T06:36:04;4.40;;;1.33;;
55758;SDS011;41678;52.126;20.664;2022-07-29T06:41:24;8.32;;;1.58;;
55758;SDS011;41678;52.126;20.664;2022-07-29T06:46:45;5.03;;;1.08;;
55758;SDS011;41678;52.126;20.664;2022-07-29T06:52:08;4.68;;;1.10;;
55758;SDS011;41678;52.126;20.664;2022-07-29T06:57:28;4.88;;;1.20;;
55758;SDS011;41678;52.126;20.664;2022-07-29T07:02:48;4.55;;;1.05;;
55758;SDS011;41678;52.126;20.664;2022-07-29T07:08:08;6.13;;;1.20;;
55758;SDS011;41678;52.126;20.664;2022-07-29T07:13:28;7.82;;;1.17;;
55758;SDS011;41678;52.126;20.664;2022-07-29T07:18:53;7.55;;;1.05;;
55758;SDS011;41678;52.126;20.664;2022-07-29T07:24:13;6.22;;;1.45;;
55758;SDS011;41678;52.126;20.664;2022-07-29T07:29:33;7.70;;;1.10;;
55758;SDS011;41678;52.126;20.664;2022-07-29T07:34:52;4.50;;;1.20;;
55758;SDS011;41678;52.126;20.664;2022-07-29T07:40:12;11.57;;;1.13;;
55758;SDS011;41678;52.126;20.664;2022-07-29T07:45:32;9.82;;;1.20;;
55758;SDS011;41678;52.126;20.664;2022-07-29T07:50:52;4.72;;;1.10;;
55758;SDS011;41678;52.126;20.664;2022-07-29T07:56:12;5.82;;;1.30;;
55758;SDS011;41678;52.126;20.664;2022-07-29T08:01:32;6.68;;;1.60;;
55758;SDS011;41678;52.126;20.664;2022-07-29T08:06:51;6.50;;;1.30;;
55758;SDS011;41678;52.126;20.664;2022-07-29T08:12:13;8.35;;;1.50;;
55758;SDS011;41678;52.126;20.664;2022-07-29T08:17:33;4.60;;;1.10;;
55758;SDS011;41678;52.126;20.664;2022-07-29T08:22:52;5.00;;;1.17;;
55758;SDS011;41678;52.126;20.664;2022-07-29T08:28:12;7.85;;;1.63;;
55758;SDS011;41678;52.126;20.664;2022-07-29T08:33:32;9.80;;;1.33;;
55758;SDS011;41678;52.126;20.664;2022-07-29T08:38:52;4.33;;;1.03;;
55758;SDS011;41678;52.126;20.664;2022-07-29T08:44:13;4.05;;;1.00;;
55758;SDS011;41678;52.126;20.664;2022-07-29T08:49:35;9.55;;;1.23;;
55758;SDS011;41678;52.126;20.664;2022-07-29T08:54:55;5.53;;;1.20;;
55758;SDS011;41678;52.126;20.664;2022-07-29T09:00:15;6.55;;;1.33;;
55758;SDS011;41678;52.126;20.664;2022-07-29T09:05:36;4.55;;;1.00;;
55758;SDS011;41678;52.126;20.664;2022-07-29T09:10:56;5.20;;;1.13;;
55758;SDS011;41678;52.126;20.664;2022-07-29T09:16:17;7.45;;;1.55;;
55758;SDS011;41678;52.126;20.664;2022-07-29T09:21:40;6.80;;;1.13;;
55758;SDS011;41678;52.126;20.664;2022-07-29T09:27:22;9.02;;;1.00;;
55758;SDS011;41678;52.126;20.664;2022-07-29T09:32:54;3.30;;;1.00;;
55758;SDS011;41678;52.126;20.664;2022-07-29T09:38:15;10.90;;;1.20;;
55758;SDS011;41678;52.126;20.664;2022-07-29T09:43:35;8.88;;;1.15;;
55758;SDS011;41678;52.126;20.664;2022-07-29T09:49:08;3.78;;;0.90;;
55758;SDS011;41678;52.126;20.664;2022-07-29T09:54:29;5.95;;;1.00;;
55758;SDS011;41678;52.126;20.664;2022-07-29T10:10:42;4.10;;;1.00;;
55758;SDS011;41678;52.126;20.664;2022-07-29T10:16:02;3.13;;;0.70;;
55758;SDS011;41678;52.126;20.664;2022-07-29T10:21:22;5.13;;;1.20;;
55758;SDS011;41678;52.126;20.664;2022-07-29T10:26:42;7.07;;;1.15;;
55758;SDS011;41678;52.126;20.664;2022-07-29T10:42:49;4.50;;;1.00;;
55758;SDS011;41678;52.126;20.664;2022-07-29T10:48:11;9.35;;;1.10;;
55758;SDS011;41678;52.126;20.664;2022-07-29T10:53:50;4.50;;;1.15;;
55758;SDS011;41678;52.126;20.664;2022-07-29T11:32:58;9.13;;;1.15;;
55758;SDS011;41678;52.126;20.664;2022-07-29T11:43:51;4.00;;;0.80;;
55758;SDS011;41678;52.126;20.664;2022-07-29T11:49:12;3.88;;;0.85;;
55758;SDS011;41678;52.126;20.664;2022-07-29T11:54:33;3.58;;;0.90;;
55758;SDS011;41678;52.126;20.664;2022-07-29T11:59:53;3.28;;;1.02;;
55758;SDS011;41678;52.126;20.664;2022-07-29T12:05:17;6.85;;;1.10;;
55758;SDS011;41678;52.126;20.664;2022-07-29T12:10:38;7.78;;;1.42;;
55758;SDS011;41678;52.126;20.664;2022-07-29T12:15:58;5.97;;;0.93;;
55758;SDS011;41678;52.126;20.664;2022-07-29T12:21:19;5.03;;;0.98;;
55758;SDS011;41678;52.126;20.664;2022-07-29T12:26:49;4.63;;;0.90;;
55758;SDS011;41678;52.126;20.664;2022-07-29T12:32:09;3.27;;;0.83;;
55758;SDS011;41678;52.126;20.664;2022-07-29T12:37:29;5.90;;;1.20;;
55758;SDS011;41678;52.126;20.664;2022-07-29T12:48:34;2.87;;;0.80;;
55758;SDS011;41678;52.126;20.664;2022-07-29T12:59:27;3.58;;;0.85;;
55758;SDS011;41678;52.126;20.664;2022-07-29T13:04:56;5.73;;;0.87;;
55758;SDS011;41678;52.126;20.664;2022-07-29T13:10:18;13.32;;;1.10;;
55758;SDS011;41678;52.126;20.664;2022-07-29T13:15:40;3.05;;;0.90;;
55758;SDS011;41678;52.126;20.664;2022-07-29T13:21:12;7.60;;;0.73;;
55758;SDS011;41678;52.126;20.664;2022-07-29T13:26:32;2.77;;;0.70;;
55758;SDS011;41678;52.126;20.664;2022-07-29T13:31:52;5.68;;;0.90;;
55758;SDS011;41678;52.126;20.664;2022-07-29T13:37:12;13.95;;;0.98;;
55758;SDS011;41678;52.126;20.664;2022-07-29T13:42:32;2.33;;;0.63;;
55758;SDS011;41678;52.126;20.664;2022-07-29T13:47:52;5.22;;;0.82;;
55758;SDS011;41678;52.126;20.664;2022-07-29T13:53:12;5.63;;;0.75;;
55758;SDS011;41678;52.126;20.664;2022-07-29T13:58:33;4.70;;;0.88;;
55758;SDS011;41678;52.126;20.664;2022-07-29T14:03:53;7.60;;;0.85;;
55758;SDS011;41678;52.126;20.664;2022-07-29T14:09:12;8.35;;;1.42;;
55758;SDS011;41678;52.126;20.664;2022-07-29T14:14:32;4.35;;;0.90;;
55758;SDS011;41678;52.126;20.664;2022-07-29T14:19:52;3.90;;;0.80;;
55758;SDS011;41678;52.126;20.664;2022-07-29T14:25:11;6.57;;;0.77;;
55758;SDS011;41678;52.126;20.664;2022-07-29T14:30:31;9.60;;;0.88;;
55758;SDS011;41678;52.126;20.664;2022-07-29T14:35:51;5.40;;;0.90;;
55758;SDS011;41678;52.126;20.664;2022-07-29T14:41:10;4.05;;;0.70;;
55758;SDS011;41678;52.126;20.664;2022-07-29T14:46:31;7.40;;;0.75;;
55758;SDS011;41678;52.126;20.664;2022-07-29T14:51:51;4.28;;;1.10;;
55758;SDS011;41678;52.126;20.664;2022-07-29T14:57:11;16.30;;;1.00;;
55758;SDS011;41678;52.126;20.664;2022-07-29T15:02:31;7.75;;;1.05;;
55758;SDS011;41678;52.126;20.664;2022-07-29T15:07:50;5.30;;;0.90;;
55758;SDS011;41678;52.126;20.664;2022-07-29T15:13:10;9.32;;;2.45;;
55758;SDS011;41678;52.126;20.664;2022-07-29T15:18:30;5.28;;;1.00;;
55758;SDS011;41678;52.126;20.664;2022-07-29T15:23:50;5.07;;;0.80;;
55758;SDS011;41678;52.126;20.664;2022-07-29T15:29:10;3.03;;;0.80;;
55758;SDS011;41678;52.126;20.664;2022-07-29T15:34:30;3.63;;;0.90;;
55758;SDS011;41678;52.126;20.664;2022-07-29T15:39:49;3.08;;;0.75;;
55758;SDS011;41678;52.126;20.664;2022-07-29T15:45:09;3.80;;;0.70;;
55758;SDS011;41678;52.126;20.664;2022-07-29T15:50:29;8.40;;;1.23;;
55758;SDS011;41678;52.126;20.664;2022-07-29T15:55:49;4.97;;;1.08;;
55758;SDS011;41678;52.126;20.664;2022-07-29T16:01:09;4.97;;;0.77;;
55758;SDS011;41678;52.126;20.664;2022-07-29T16:06:29;4.23;;;0.90;;
55758;SDS011;41678;52.126;20.664;2022-07-29T16:11:50;4.88;;;1.20;;
55758;SDS011;41678;52.126;20.664;2022-07-29T16:17:12;4.75;;;0.95;;
55758;SDS011;41678;52.126;20.664;2022-07-29T16:22:32;4.67;;;0.87;;
55758;SDS011;41678;52.126;20.664;2022-07-29T16:27:51;4.60;;;1.05;;
55758;SDS011;41678;52.126;20.664;2022-07-29T16:33:11;3.10;;;0.80;;
55758;SDS011;41678;52.126;20.664;2022-07-29T16:38:31;5.10;;;1.00;;
55758;SDS011;41678;52.126;20.664;2022-07-29T16:43:51;3.75;;;0.90;;
55758;SDS011;41678;52.126;20.664;2022-07-29T16:49:11;7.22;;;1.00;;
55758;SDS011;41678;52.126;20.664;2022-07-29T16:54:34;6.68;;;1.17;;
55758;SDS011;41678;52.126;20.664;2022-07-29T16:59:53;4.75;;;1.00;;
55758;SDS011;41678;52.126;20.664;2022-07-29T17:05:13;7.07;;;1.00;;
55758;SDS011;41678;52.126;20.664;2022-07-29T17:10:33;4.63;;;0.80;;
55758;SDS011;41678;52.126;20.664;2022-07-29T17:15:53;5.75;;;1.02;;
55758;SDS011;41678;52.126;20.664;2022-07-29T17:21:14;9.52;;;1.00;;
55758;SDS011;41678;52.126;20.664;2022-07-29T17:26:35;3.15;;;0.90;;
55758;SDS011;41678;52.126;20.664;2022-07-29T17:31:55;7.30;;;1.48;;
55758;SDS011;41678;52.126;20.664;2022-07-29T17:37:16;7.32;;;1.27;;
55758;SDS011;41678;52.126;20.664;2022-07-29T17:42:36;6.20;;;1.00;;
55758;SDS011;41678;52.126;20.664;2022-07-29T17:47:56;2.92;;;0.85;;
55758;SDS011;41678;52.126;20.664;2022-07-29T17:53:16;8.73;;;1.10;;
55758;SDS011;41678;52.126;20.664;2022-07-29T17:58:36;3.03;;;0.87;;
55758;SDS011;41678;52.126;20.664;2022-07-29T18:03:57;3.38;;;0.80;;
55758;SDS011;41678;52.126;20.664;2022-07-29T18:09:17;5.67;;;1.10;;
55758;SDS011;41678;52.126;20.664;2022-07-29T18:14:38;3.63;;;0.97;;
55758;SDS011;41678;52.126;20.664;2022-07-29T18:19:58;8.73;;;1.00;;
55758;SDS011;41678;52.126;20.664;2022-07-29T18:25:18;4.50;;;1.00;;
55758;SDS011;41678;52.126;20.664;2022-07-29T18:30:38;3.70;;;0.90;;
55758;SDS011;41678;52.126;20.664;2022-07-29T18:35:58;4.45;;;0.90;;
55758;SDS011;41678;52.126;20.664;2022-07-29T18:41:18;3.53;;;0.95;;
55758;SDS011;41678;52.126;20.664;2022-07-29T18:46:38;5.53;;;1.15;;
55758;SDS011;41678;52.126;20.664;2022-07-29T18:51:58;5.55;;;1.20;;
55758;SDS011;41678;52.126;20.664;2022-07-29T18:57:22;4.22;;;1.15;;
55758;SDS011;41678;52.126;20.664;2022-07-29T19:09:08;5.68;;;1.35;;
55758;SDS011;41678;52.126;20.664;2022-07-29T19:14:28;6.70;;;1.13;;
55758;SDS011;41678;52.126;20.664;2022-07-29T19:19:48;6.13;;;1.20;;
55758;SDS011;41678;52.126;20.664;2022-07-29T19:25:12;6.20;;;1.42;;
55758;SDS011;41678;52.126;20.664;2022-07-29T19:30:32;7.95;;;1.45;;
55758;SDS011;41678;52.126;20.664;2022-07-29T19:36:10;5.45;;;1.38;;
55758;SDS011;41678;52.126;20.664;2022-07-29T19:41:29;6.97;;;1.50;;
55758;SDS011;41678;52.126;20.664;2022-07-29T19:46:50;11.07;;;1.50;;
55758;SDS011;41678;52.126;20.664;2022-07-29T19:52:10;6.93;;;1.30;;
55758;SDS011;41678;52.126;20.664;2022-07-29T19:57:30;11.40;;;1.85;;
55758;SDS011;41678;52.126;20.664;2022-07-29T20:02:51;5.45;;;1.88;;
55758;SDS011;41678;52.126;20.664;2022-07-29T20:39:38;7.40;;;1.70;;
55758;SDS011;41678;52.126;20.664;2022-07-29T20:44:58;4.47;;;1.33;;
55758;SDS011;41678;52.126;20.664;2022-07-29T20:50:18;7.00;;;1.10;;
55758;SDS011;41678;52.126;20.664;2022-07-29T20:55:46;5.85;;;1.30;;
55758;SDS011;41678;52.126;20.664;2022-07-29T21:01:06;6.72;;;1.38;;
55758;SDS011;41678;52.126;20.664;2022-07-29T21:14:23;7.40;;;2.35;;
55758;SDS011;41678;52.126;20.664;2022-07-29T21:20:05;8.52;;;2.90;;
55758;SDS011;41678;52.126;20.664;2022-07-29T21:25:26;6.85;;;2.08;;
55758;SDS011;41678;52.126;20.664;2022-07-29T21:30:46;5.97;;;1.80;;
55758;SDS011;41678;52.126;20.664;2022-07-29T21:36:06;5.25;;;1.58;;
55758;SDS011;41678;52.126;20.664;2022-07-29T21:41:27;12.63;;;1.55;;
55758;SDS011;41678;52.126;20.664;2022-07-29T21:46:47;3.88;;;1.17;;
55758;SDS011;41678;52.126;20.664;2022-07-29T21:52:07;5.25;;;1.20;;
55758;SDS011;41678;52.126;20.664;2022-07-29T21:57:27;5.28;;;1.30;;
55758;SDS011;41678;52.126;20.664;2022-07-29T22:09:52;5.15;;;1.55;;
55758;SDS011;41678;52.126;20.664;2022-07-29T22:15:12;6.03;;;1.15;;
55758;SDS011;41678;52.126;20.664;2022-07-29T22:20:31;4.35;;;1.40;;
55758;SDS011;41678;52.126;20.664;2022-07-29T22:25:51;4.65;;;1.30;;
55758;SDS011;41678;52.126;20.664;2022-07-29T22:31:11;5.40;;;1.20;;
55758;SDS011;41678;52.126;20.664;2022-07-29T22:36:31;5.03;;;1.15;;
55758;SDS011;41678;52.126;20.664;2022-07-29T22:41:50;5.68;;;1.40;;
55758;SDS011;41678;52.126;20.664;2022-07-29T22:47:10;7.45;;;1.20;;
55758;SDS011;41678;52.126;20.664;2022-07-29T22:52:30;4.82;;;1.05;;
55758;SDS011;41678;52.126;20.664;2022-07-29T22:57:50;3.60;;;0.98;;
55758;SDS011;41678;52.126;20.664;2022-07-29T23:03:09;4.07;;;1.10;;
55758;SDS011;41678;52.126;20.664;2022-07-29T23:08:29;5.15;;;1.33;;
55758;SDS011;41678;52.126;20.664;2022-07-29T23:13:49;5.90;;;1.55;;
55758;SDS011;41678;52.126;20.664;2022-07-29T23:19:09;9.00;;;1.70;;
55758;SDS011;41678;52.126;20.664;2022-07-29T23:24:29;4.32;;;1.20;;
55758;SDS011;41678;52.126;20.664;2022-07-29T23:29:49;5.65;;;1.20;;
55758;SDS011;41678;52.126;20.664;2022-07-29T23:35:08;4.28;;;1.10;;
55758;SDS011;41678;52.126;20.664;2022-07-29T23:40:28;8.68;;;1.00;;
55758;SDS011;41678;52.126;20.664;2022-07-29T23:45:48;5.10;;;1.20;;
55758;SDS011;41678;52.126;20.664;2022-07-29T23:51:08;4.22;;;1.00;;
55758;SDS011;41678;52.126;20.664;2022-07-29T23:56:28;2.65;;;0.88;;
